Time;durP1;ratioP1;P1;durP2;ratioP2;P2;SDS_P1;SDS_P2;PMS_P1;PMS_P2;Temp;Humidity;BMP_temperature;BMP_pressure;BME280_temperature;BME280_humidity;BME280_pressure;Samples;Min_cycle;Max_cycle;Signal;HPM_P1;HPM_P2
2023/06/08 00:15:30;;;;;;;20.17;17.83;;;13.50;99.90;;;;;;4742529;29;20911;-81
2023/06/08 00:45:38;;;;;;;22.23;20.03;;;13.20;99.90;;;;;;4816862;28;20727;-83
2023/06/08 01:46:12;;;;;;;26.17;23.37;;;12.70;99.90;;;;;;4632766;30;20508;-82
2023/06/08 02:12:10;;;;;;;26.57;23.97;;;12.60;99.90;;;;;;4708321;29;20234;-82
2023/06/08 02:47:44;;;;;;;35.80;32.00;;;12.30;99.90;;;;;;5010866;27;20483;-81
2023/06/08 03:18:05;;;;;;;26.40;23.73;;;12.80;99.90;;;;;;4849157;28;20603;-80
2023/06/08 03:43:24;;;;;;;22.83;20.47;;;13.50;99.90;;;;;;4711125;29;20231;-82
2023/06/08 04:03:38;;;;;;;19.00;17.10;;;14.30;99.90;;;;;;4583737;30;20267;-83
2023/06/08 04:34:13;;;;;;;14.33;12.87;;;15.20;99.90;;;;;;4824679;28;20541;-84
2023/06/08 04:58:54;;;;;;;10.77;9.67;;;16.40;99.90;;;;;;4684707;29;20271;-80
2023/06/08 05:19:36;;;;;;;10.83;9.77;;;17.10;99.90;;;;;;4662926;29;20229;-84
2023/06/08 05:44:32;;;;;;;9.57;8.57;;;17.60;98.20;;;;;;4570853;30;20618;-82
2023/06/08 06:05:31;;;;;;;8.67;7.97;;;18.10;94.00;;;;;;4811953;29;20306;-81
2023/06/08 06:25:29;;;;;;;7.07;6.40;;;18.60;92.50;;;;;;4777651;28;20935;-82
2023/06/08 06:50:31;;;;;;;5.57;5.07;;;19.80;89.30;;;;;;4745211;29;20534;-83
2023/06/08 07:16:25;;;;;;;6.33;5.07;;;20.50;87.10;;;;;;4668428;29;20742;-81
2023/06/08 07:52:01;;;;;;;5.57;4.97;;;21.80;83.00;;;;;;4921727;28;20376;-83
2023/06/08 07:56:21;;;;;;;6.30;5.38;;;22.10;81.70;;;;;;4859219;28;20660;-82
2023/06/08 08:17:03;;;;;;;5.07;4.57;;;22.30;80.20;;;;;;4827224;28;20389;-82
2023/06/08 08:47:31;;;;;;;5.68;4.47;;;23.20;73.00;;;;;;4600627;30;20357;-84
2023/06/08 09:12:40;;;;;;;3.78;3.40;;;23.60;68.30;;;;;;4559403;30;20735;-82
2023/06/08 09:33:23;;;;;;;4.22;3.63;;;23.70;64.90;;;;;;4768093;29;20215;-83
2023/06/08 10:03:49;;;;;;;4.50;4.10;;;23.70;61.10;;;;;;4769429;29;20215;-83
2023/06/08 10:24:06;;;;;;;5.68;3.80;;;24.20;62.90;;;;;;4716567;29;20288;-82
2023/06/08 10:48:53;;;;;;;3.97;3.65;;;24.20;57.10;;;;;;4637418;29;20613;-81
2023/06/08 11:14:34;;;;;;;4.63;3.10;;;24.50;55.50;;;;;;4799081;28;20212;-82
2023/06/08 11:45:14;;;;;;;3.90;3.45;;;25.10;53.40;;;;;;4776546;29;20221;-85
2023/06/08 12:10:18;;;;;;;4.50;3.47;;;25.40;51.20;;;;;;4665803;29;20304;-81
2023/06/08 12:46:08;;;;;;;4.22;3.83;;;26.10;49.80;;;;;;4857598;28;20216;-81
2023/06/08 12:50:29;;;;;;;4.05;3.72;;;26.20;49.60;;;;;;4887854;28;20649;-79
2023/06/08 13:21:32;;;;;;;4.47;4.07;;;26.30;50.00;;;;;;4968117;27;20182;-83
2023/06/08 13:46:38;;;;;;;6.28;4.45;;;26.50;48.90;;;;;;4781813;28;20201;-83
2023/06/08 14:07:04;;;;;;;4.22;3.80;;;28.40;48.20;;;;;;4650800;29;20591;-84
2023/06/08 15:03:01;;;;;;;4.10;3.70;;;29.20;47.10;;;;;;4614916;29;20209;-80
2023/06/08 15:33:11;;;;;;;6.13;4.00;;;28.00;46.70;;;;;;4853103;28;20498;-82
2023/06/08 16:14:01;;;;;;;4.57;4.15;;;25.90;48.80;;;;;;4941607;28;20211;-84
2023/06/08 16:49:18;;;;;;;3.85;3.45;;;24.70;50.10;;;;;;4694962;29;20210;-82
2023/06/08 17:09:49;;;;;;;4.18;3.83;;;24.40;50.50;;;;;;4737247;29;20228;-82
2023/06/08 17:14:12;;;;;;;4.35;3.40;;;24.20;50.80;;;;;;4648611;29;20543;-80
2023/06/08 18:00:20;;;;;;;6.20;3.78;;;23.30;52.70;;;;;;4797462;28;20209;-84
2023/06/08 18:35:54;;;;;;;6.53;4.70;;;22.20;71.00;;;;;;4792678;28;20240;-81
2023/06/08 19:06:26;;;;;;;5.80;4.90;;;20.10;86.30;;;;;;4888636;28;20301;-83
2023/06/08 19:36:09;;;;;;;6.83;6.23;;;19.10;91.40;;;;;;4935050;27;20745;-81
2023/06/08 19:56:59;;;;;;;10.03;6.70;;;18.40;92.90;;;;;;4904187;28;20536;-83
2023/06/08 20:27:35;;;;;;;9.83;7.27;;;18.00;96.50;;;;;;4797983;28;20216;-82
2023/06/08 20:31:55;;;;;;;9.07;6.83;;;17.80;97.60;;;;;;4724142;29;20633;-82
2023/06/08 20:52:32;;;;;;;8.93;7.43;;;17.20;99.90;;;;;;4714831;29;20519;-81
2023/06/08 21:13:08;;;;;;;8.60;7.80;;;16.80;99.90;;;;;;4644354;29;20762;-82
2023/06/08 21:33:32;;;;;;;8.90;8.00;;;16.40;99.90;;;;;;4716727;29;20244;-79
2023/06/08 22:03:40;;;;;;;9.57;8.77;;;16.10;99.90;;;;;;4608628;30;20221;-82
2023/06/08 22:34:11;;;;;;;10.23;9.23;;;15.50;99.90;;;;;;4706072;29;20663;-82
2023/06/08 23:39:50;;;;;;;10.63;9.73;;;14.90;99.90;;;;;;4692418;29;20369;-79
